sensor_id;sensor_type;location;lat;lon;timestamp;P1;durP1;ratioP1;P2;durP2;ratioP2
19747;SDS011;10032;51.386;12.516;2022-11-12T00:00:30;7.33;;;5.03;;
19747;SDS011;10032;51.386;12.516;2022-11-12T00:02:56;8.33;;;5.17;;
19747;SDS011;10032;51.386;12.516;2022-11-12T00:05:22;7.53;;;4.67;;
19747;SDS011;10032;51.386;12.516;2022-11-12T00:07:47;6.20;;;5.00;;
19747;SDS011;10032;51.386;12.516;2022-11-12T00:10:13;7.40;;;5.13;;
19747;SDS011;10032;51.386;12.516;2022-11-12T00:12:39;8.63;;;5.83;;
19747;SDS011;10032;51.386;12.516;2022-11-12T00:15:04;8.70;;;5.87;;
19747;SDS011;10032;51.386;12.516;2022-11-12T00:17:30;7.80;;;5.57;;
19747;SDS011;10032;51.386;12.516;2022-11-12T00:19:55;7.03;;;5.23;;
19747;SDS011;10032;51.386;12.516;2022-11-12T00:22:21;8.20;;;5.40;;
19747;SDS011;10032;51.386;12.516;2022-11-12T00:24:47;6.40;;;4.77;;
19747;SDS011;10032;51.386;12.516;2022-11-12T00:27:12;4.93;;;4.43;;
19747;SDS011;10032;51.386;12.516;2022-11-12T00:29:40;6.63;;;5.03;;
19747;SDS011;10032;51.386;12.516;2022-11-12T00:32:06;6.77;;;4.60;;
19747;SDS011;10032;51.386;12.516;2022-11-12T00:34:33;5.27;;;4.07;;
19747;SDS011;10032;51.386;12.516;2022-11-12T00:36:59;6.30;;;4.63;;
19747;SDS011;10032;51.386;12.516;2022-11-12T00:39:25;7.30;;;4.93;;
19747;SDS011;10032;51.386;12.516;2022-11-12T00:41:51;5.43;;;4.37;;
19747;SDS011;10032;51.386;12.516;2022-11-12T00:44:16;7.23;;;5.43;;
19747;SDS011;10032;51.386;12.516;2022-11-12T00:46:41;7.37;;;5.07;;
19747;SDS011;10032;51.386;12.516;2022-11-12T00:49:07;7.80;;;5.60;;
19747;SDS011;10032;51.386;12.516;2022-11-12T00:51:32;8.37;;;5.20;;
19747;SDS011;10032;51.386;12.516;2022-11-12T00:53:58;6.37;;;5.63;;
19747;SDS011;10032;51.386;12.516;2022-11-12T00:56:24;10.87;;;6.87;;
19747;SDS011;10032;51.386;12.516;2022-11-12T00:58:49;8.87;;;6.30;;
19747;SDS011;10032;51.386;12.516;2022-11-12T01:01:15;9.27;;;6.50;;
19747;SDS011;10032;51.386;12.516;2022-11-12T01:03:41;10.17;;;7.17;;
19747;SDS011;10032;51.386;12.516;2022-11-12T01:06:11;14.67;;;10.13;;
19747;SDS011;10032;51.386;12.516;2022-11-12T01:08:38;23.90;;;15.57;;
19747;SDS011;10032;51.386;12.516;2022-11-12T01:11:15;16.67;;;11.00;;
19747;SDS011;10032;51.386;12.516;2022-11-12T01:13:47;12.97;;;8.50;;
19747;SDS011;10032;51.386;12.516;2022-11-12T01:16:18;17.13;;;11.33;;
19747;SDS011;10032;51.386;12.516;2022-11-12T01:18:46;15.90;;;11.00;;
19747;SDS011;10032;51.386;12.516;2022-11-12T01:21:17;11.70;;;8.00;;
19747;SDS011;10032;51.386;12.516;2022-11-12T01:23:42;12.73;;;8.93;;
19747;SDS011;10032;51.386;12.516;2022-11-12T01:26:09;13.27;;;9.23;;
19747;SDS011;10032;51.386;12.516;2022-11-12T01:28:39;10.93;;;8.43;;
19747;SDS011;10032;51.386;12.516;2022-11-12T01:31:11;10.87;;;7.80;;
19747;SDS011;10032;51.386;12.516;2022-11-12T01:33:41;13.87;;;8.57;;
19747;SDS011;10032;51.386;12.516;2022-11-12T01:36:08;9.57;;;7.33;;
19747;SDS011;10032;51.386;12.516;2022-11-12T01:38:35;10.47;;;8.17;;
19747;SDS011;10032;51.386;12.516;2022-11-12T01:41:03;12.10;;;8.17;;
19747;SDS011;10032;51.386;12.516;2022-11-12T01:43:29;8.57;;;6.50;;
19747;SDS011;10032;51.386;12.516;2022-11-12T01:45:54;7.90;;;6.57;;
19747;SDS011;10032;51.386;12.516;2022-11-12T01:48:29;10.97;;;7.17;;
19747;SDS011;10032;51.386;12.516;2022-11-12T01:50:58;9.60;;;6.67;;
19747;SDS011;10032;51.386;12.516;2022-11-12T01:53:27;9.07;;;5.57;;
19747;SDS011;10032;51.386;12.516;2022-11-12T01:55:58;7.60;;;5.03;;
19747;SDS011;10032;51.386;12.516;2022-11-12T01:58:25;6.33;;;5.73;;
19747;SDS011;10032;51.386;12.516;2022-11-12T02:00:54;8.23;;;5.40;;
19747;SDS011;10032;51.386;12.516;2022-11-12T02:03:22;8.83;;;5.83;;
19747;SDS011;10032;51.386;12.516;2022-11-12T02:05:50;7.47;;;5.13;;
19747;SDS011;10032;51.386;12.516;2022-11-12T02:08:20;7.50;;;5.77;;
19747;SDS011;10032;51.386;12.516;2022-11-12T02:10:48;10.13;;;6.10;;
19747;SDS011;10032;51.386;12.516;2022-11-12T02:13:14;7.60;;;6.00;;
19747;SDS011;10032;51.386;12.516;2022-11-12T02:15:59;8.97;;;5.87;;
19747;SDS011;10032;51.386;12.516;2022-11-12T02:18:24;6.30;;;5.03;;
19747;SDS011;10032;51.386;12.516;2022-11-12T02:20:54;8.27;;;6.07;;
19747;SDS011;10032;51.386;12.516;2022-11-12T02:23:22;7.70;;;5.80;;
19747;SDS011;10032;51.386;12.516;2022-11-12T02:25:47;9.10;;;6.20;;
19747;SDS011;10032;51.386;12.516;2022-11-12T02:28:13;7.90;;;5.93;;
19747;SDS011;10032;51.386;12.516;2022-11-12T02:30:41;7.53;;;5.47;;
19747;SDS011;10032;51.386;12.516;2022-11-12T02:33:08;7.83;;;6.33;;
19747;SDS011;10032;51.386;12.516;2022-11-12T02:35:34;7.63;;;5.87;;
19747;SDS011;10032;51.386;12.516;2022-11-12T02:37:59;8.07;;;5.93;;
19747;SDS011;10032;51.386;12.516;2022-11-12T02:40:25;8.27;;;6.33;;
19747;SDS011;10032;51.386;12.516;2022-11-12T02:42:51;8.93;;;6.37;;
19747;SDS011;10032;51.386;12.516;2022-11-12T02:45:16;8.77;;;6.53;;
19747;SDS011;10032;51.386;12.516;2022-11-12T02:47:42;9.23;;;6.50;;
19747;SDS011;10032;51.386;12.516;2022-11-12T02:50:08;9.87;;;6.67;;
19747;SDS011;10032;51.386;12.516;2022-11-12T02:52:34;9.70;;;6.23;;
19747;SDS011;10032;51.386;12.516;2022-11-12T02:55:00;9.90;;;6.63;;
19747;SDS011;10032;51.386;12.516;2022-11-12T02:57:25;7.53;;;5.60;;
19747;SDS011;10032;51.386;12.516;2022-11-12T02:59:51;9.10;;;6.60;;
19747;SDS011;10032;51.386;12.516;2022-11-12T03:02:17;6.60;;;5.63;;
19747;SDS011;10032;51.386;12.516;2022-11-12T03:04:42;8.43;;;5.63;;
19747;SDS011;10032;51.386;12.516;2022-11-12T03:07:07;9.37;;;6.83;;
19747;SDS011;10032;51.386;12.516;2022-11-12T03:09:33;10.07;;;6.37;;
19747;SDS011;10032;51.386;12.516;2022-11-12T03:11:58;9.67;;;6.43;;
19747;SDS011;10032;51.386;12.516;2022-11-12T03:14:24;7.63;;;6.20;;
19747;SDS011;10032;51.386;12.516;2022-11-12T03:16:50;8.60;;;6.30;;
19747;SDS011;10032;51.386;12.516;2022-11-12T03:19:15;10.50;;;6.67;;
19747;SDS011;10032;51.386;12.516;2022-11-12T03:21:40;9.33;;;6.57;;
19747;SDS011;10032;51.386;12.516;2022-11-12T03:24:06;9.47;;;6.90;;
19747;SDS011;10032;51.386;12.516;2022-11-12T03:26:31;9.00;;;6.57;;
19747;SDS011;10032;51.386;12.516;2022-11-12T03:28:57;10.33;;;6.73;;
19747;SDS011;10032;51.386;12.516;2022-11-12T03:31:22;7.40;;;6.10;;
19747;SDS011;10032;51.386;12.516;2022-11-12T03:33:48;9.43;;;6.13;;
19747;SDS011;10032;51.386;12.516;2022-11-12T03:36:13;12.30;;;6.87;;
19747;SDS011;10032;51.386;12.516;2022-11-12T03:38:39;11.03;;;7.00;;
19747;SDS011;10032;51.386;12.516;2022-11-12T03:41:04;11.53;;;7.53;;
19747;SDS011;10032;51.386;12.516;2022-11-12T03:43:30;12.33;;;7.97;;
19747;SDS011;10032;51.386;12.516;2022-11-12T03:45:55;9.93;;;7.70;;
19747;SDS011;10032;51.386;12.516;2022-11-12T03:48:20;11.40;;;7.90;;
19747;SDS011;10032;51.386;12.516;2022-11-12T03:50:46;10.07;;;7.17;;
19747;SDS011;10032;51.386;12.516;2022-11-12T03:53:12;9.13;;;7.07;;
19747;SDS011;10032;51.386;12.516;2022-11-12T03:55:38;8.53;;;6.40;;
19747;SDS011;10032;51.386;12.516;2022-11-12T03:58:03;10.07;;;7.10;;
19747;SDS011;10032;51.386;12.516;2022-11-12T04:00:29;8.97;;;6.13;;
19747;SDS011;10032;51.386;12.516;2022-11-12T04:02:55;10.73;;;6.33;;
19747;SDS011;10032;51.386;12.516;2022-11-12T04:05:21;8.90;;;6.47;;
19747;SDS011;10032;51.386;12.516;2022-11-12T04:08:10;11.70;;;7.47;;
19747;SDS011;10032;51.386;12.516;2022-11-12T04:11:13;8.93;;;7.60;;
19747;SDS011;10032;51.386;12.516;2022-11-12T04:13:41;10.27;;;8.80;;
19747;SDS011;10032;51.386;12.516;2022-11-12T04:16:21;14.97;;;9.37;;
19747;SDS011;10032;51.386;12.516;2022-11-12T04:19:06;13.90;;;9.10;;
19747;SDS011;10032;51.386;12.516;2022-11-12T04:21:55;12.50;;;9.03;;
19747;SDS011;10032;51.386;12.516;2022-11-12T04:27:19;10.53;;;7.23;;
19747;SDS011;10032;51.386;12.516;2022-11-12T04:29:48;12.37;;;7.87;;
19747;SDS011;10032;51.386;12.516;2022-11-12T04:32:33;11.97;;;8.07;;
19747;SDS011;10032;51.386;12.516;2022-11-12T04:35:00;13.73;;;9.70;;
19747;SDS011;10032;51.386;12.516;2022-11-12T04:37:28;12.67;;;8.67;;
19747;SDS011;10032;51.386;12.516;2022-11-12T04:40:08;11.87;;;7.40;;
19747;SDS011;10032;51.386;12.516;2022-11-12T04:43:04;9.67;;;7.70;;
19747;SDS011;10032;51.386;12.516;2022-11-12T04:45:50;10.37;;;6.70;;
19747;SDS011;10032;51.386;12.516;2022-11-12T04:48:17;7.97;;;5.97;;
19747;SDS011;10032;51.386;12.516;2022-11-12T04:50:44;8.07;;;6.07;;
19747;SDS011;10032;51.386;12.516;2022-11-12T04:53:12;10.40;;;7.20;;
19747;SDS011;10032;51.386;12.516;2022-11-12T04:55:38;8.17;;;6.00;;
19747;SDS011;10032;51.386;12.516;2022-11-12T04:58:04;8.93;;;6.70;;
19747;SDS011;10032;51.386;12.516;2022-11-12T05:00:29;10.80;;;6.43;;
19747;SDS011;10032;51.386;12.516;2022-11-12T05:02:55;9.37;;;6.97;;
19747;SDS011;10032;51.386;12.516;2022-11-12T05:05:21;7.47;;;6.23;;
19747;SDS011;10032;51.386;12.516;2022-11-12T05:07:46;10.33;;;6.93;;
19747;SDS011;10032;51.386;12.516;2022-11-12T05:10:12;10.43;;;7.13;;
19747;SDS011;10032;51.386;12.516;2022-11-12T05:12:37;8.73;;;6.50;;
19747;SDS011;10032;51.386;12.516;2022-11-12T05:15:03;7.33;;;5.87;;
19747;SDS011;10032;51.386;12.516;2022-11-12T05:17:29;10.07;;;6.63;;
19747;SDS011;10032;51.386;12.516;2022-11-12T05:19:55;10.57;;;6.43;;
19747;SDS011;10032;51.386;12.516;2022-11-12T05:22:20;12.80;;;5.93;;
19747;SDS011;10032;51.386;12.516;2022-11-12T05:24:45;16.90;;;8.70;;
19747;SDS011;10032;51.386;12.516;2022-11-12T05:27:20;11.40;;;6.93;;
19747;SDS011;10032;51.386;12.516;2022-11-12T05:29:45;9.53;;;6.47;;
19747;SDS011;10032;51.386;12.516;2022-11-12T05:32:12;8.87;;;6.63;;
19747;SDS011;10032;51.386;12.516;2022-11-12T05:34:38;10.37;;;6.13;;
19747;SDS011;10032;51.386;12.516;2022-11-12T05:37:05;9.87;;;7.30;;
19747;SDS011;10032;51.386;12.516;2022-11-12T05:39:31;8.37;;;6.20;;
19747;SDS011;10032;51.386;12.516;2022-11-12T05:41:57;10.27;;;6.50;;
19747;SDS011;10032;51.386;12.516;2022-11-12T05:44:23;12.67;;;7.50;;
19747;SDS011;10032;51.386;12.516;2022-11-12T05:46:48;8.37;;;6.27;;
19747;SDS011;10032;51.386;12.516;2022-11-12T05:49:16;9.27;;;6.30;;
19747;SDS011;10032;51.386;12.516;2022-11-12T05:51:42;10.10;;;6.47;;
19747;SDS011;10032;51.386;12.516;2022-11-12T05:54:08;10.37;;;6.60;;
19747;SDS011;10032;51.386;12.516;2022-11-12T05:56:34;8.03;;;6.40;;
19747;SDS011;10032;51.386;12.516;2022-11-12T05:59:00;10.27;;;6.50;;
19747;SDS011;10032;51.386;12.516;2022-11-12T06:01:29;7.00;;;5.60;;
19747;SDS011;10032;51.386;12.516;2022-11-12T06:03:55;8.57;;;6.47;;
19747;SDS011;10032;51.386;12.516;2022-11-12T06:06:20;8.73;;;6.10;;
19747;SDS011;10032;51.386;12.516;2022-11-12T06:08:46;9.53;;;6.23;;
19747;SDS011;10032;51.386;12.516;2022-11-12T06:11:12;9.60;;;5.87;;
19747;SDS011;10032;51.386;12.516;2022-11-12T06:13:37;7.87;;;6.07;;
19747;SDS011;10032;51.386;12.516;2022-11-12T06:16:03;6.73;;;6.03;;
19747;SDS011;10032;51.386;12.516;2022-11-12T06:18:28;8.93;;;6.40;;
19747;SDS011;10032;51.386;12.516;2022-11-12T06:20:59;6.77;;;4.80;;
19747;SDS011;10032;51.386;12.516;2022-11-12T06:23:46;7.97;;;5.93;;
19747;SDS011;10032;51.386;12.516;2022-11-12T06:26:12;10.30;;;6.53;;
19747;SDS011;10032;51.386;12.516;2022-11-12T06:28:38;10.40;;;5.77;;
19747;SDS011;10032;51.386;12.516;2022-11-12T06:31:03;8.63;;;5.83;;
19747;SDS011;10032;51.386;12.516;2022-11-12T06:33:29;9.13;;;6.27;;
19747;SDS011;10032;51.386;12.516;2022-11-12T06:35:55;8.80;;;5.67;;
19747;SDS011;10032;51.386;12.516;2022-11-12T06:38:22;10.37;;;7.07;;
19747;SDS011;10032;51.386;12.516;2022-11-12T06:40:47;10.70;;;8.03;;
19747;SDS011;10032;51.386;12.516;2022-11-12T06:43:13;10.80;;;7.50;;
19747;SDS011;10032;51.386;12.516;2022-11-12T06:45:38;8.67;;;6.40;;
19747;SDS011;10032;51.386;12.516;2022-11-12T06:48:04;8.23;;;6.17;;
19747;SDS011;10032;51.386;12.516;2022-11-12T06:50:29;8.93;;;6.60;;
19747;SDS011;10032;51.386;12.516;2022-11-12T06:52:58;8.20;;;6.93;;
19747;SDS011;10032;51.386;12.516;2022-11-12T06:55:23;11.27;;;7.43;;
19747;SDS011;10032;51.386;12.516;2022-11-12T06:57:52;9.17;;;7.03;;
19747;SDS011;10032;51.386;12.516;2022-11-12T07:00:18;10.97;;;7.13;;
19747;SDS011;10032;51.386;12.516;2022-11-12T07:02:43;10.90;;;7.33;;
19747;SDS011;10032;51.386;12.516;2022-11-12T07:05:09;10.97;;;6.77;;
19747;SDS011;10032;51.386;12.516;2022-11-12T07:07:34;11.90;;;7.73;;
19747;SDS011;10032;51.386;12.516;2022-11-12T07:10:00;11.67;;;7.13;;
19747;SDS011;10032;51.386;12.516;2022-11-12T07:12:25;9.93;;;6.70;;
19747;SDS011;10032;51.386;12.516;2022-11-12T07:14:51;8.13;;;6.47;;
19747;SDS011;10032;51.386;12.516;2022-11-12T07:17:16;11.93;;;7.73;;
19747;SDS011;10032;51.386;12.516;2022-11-12T07:19:41;10.67;;;7.73;;
19747;SDS011;10032;51.386;12.516;2022-11-12T07:22:07;10.77;;;7.57;;
19747;SDS011;10032;51.386;12.516;2022-11-12T07:24:32;9.43;;;7.23;;
19747;SDS011;10032;51.386;12.516;2022-11-12T07:26:58;9.83;;;7.33;;
19747;SDS011;10032;51.386;12.516;2022-11-12T07:29:23;10.57;;;6.57;;
19747;SDS011;10032;51.386;12.516;2022-11-12T07:31:48;11.87;;;8.33;;
19747;SDS011;10032;51.386;12.516;2022-11-12T07:34:14;10.63;;;8.93;;
19747;SDS011;10032;51.386;12.516;2022-11-12T07:36:39;11.37;;;8.33;;
19747;SDS011;10032;51.386;12.516;2022-11-12T07:39:05;11.43;;;7.97;;
19747;SDS011;10032;51.386;12.516;2022-11-12T07:41:30;13.30;;;9.90;;
19747;SDS011;10032;51.386;12.516;2022-11-12T07:43:55;21.07;;;10.87;;
19747;SDS011;10032;51.386;12.516;2022-11-12T07:46:22;13.63;;;10.47;;
19747;SDS011;10032;51.386;12.516;2022-11-12T07:48:49;14.83;;;10.73;;
19747;SDS011;10032;51.386;12.516;2022-11-12T07:51:17;11.60;;;9.13;;
19747;SDS011;10032;51.386;12.516;2022-11-12T07:53:48;13.33;;;8.97;;
19747;SDS011;10032;51.386;12.516;2022-11-12T07:56:16;13.87;;;9.03;;
19747;SDS011;10032;51.386;12.516;2022-11-12T07:58:43;16.30;;;10.67;;
19747;SDS011;10032;51.386;12.516;2022-11-12T08:01:09;14.70;;;9.10;;
19747;SDS011;10032;51.386;12.516;2022-11-12T08:03:48;15.13;;;9.93;;
19747;SDS011;10032;51.386;12.516;2022-11-12T08:06:13;14.53;;;10.70;;
19747;SDS011;10032;51.386;12.516;2022-11-12T08:08:38;12.97;;;9.50;;
19747;SDS011;10032;51.386;12.516;2022-11-12T08:11:04;10.43;;;8.33;;
19747;SDS011;10032;51.386;12.516;2022-11-12T08:13:30;12.73;;;9.33;;
19747;SDS011;10032;51.386;12.516;2022-11-12T08:15:56;12.17;;;9.13;;
19747;SDS011;10032;51.386;12.516;2022-11-12T08:18:23;14.20;;;9.77;;
19747;SDS011;10032;51.386;12.516;2022-11-12T08:20:49;11.43;;;8.30;;
19747;SDS011;10032;51.386;12.516;2022-11-12T08:23:14;10.43;;;8.10;;
19747;SDS011;10032;51.386;12.516;2022-11-12T08:25:40;16.23;;;8.13;;
19747;SDS011;10032;51.386;12.516;2022-11-12T08:28:05;12.17;;;8.77;;
19747;SDS011;10032;51.386;12.516;2022-11-12T08:30:30;11.33;;;9.53;;
19747;SDS011;10032;51.386;12.516;2022-11-12T08:35:23;11.17;;;8.20;;
19747;SDS011;10032;51.386;12.516;2022-11-12T08:37:49;13.47;;;9.50;;
19747;SDS011;10032;51.386;12.516;2022-11-12T08:40:14;9.57;;;7.43;;
19747;SDS011;10032;51.386;12.516;2022-11-12T08:42:40;11.67;;;8.57;;
19747;SDS011;10032;51.386;12.516;2022-11-12T08:45:05;12.27;;;8.93;;
19747;SDS011;10032;51.386;12.516;2022-11-12T08:47:33;12.47;;;9.50;;
19747;SDS011;10032;51.386;12.516;2022-11-12T08:49:59;13.40;;;8.33;;
19747;SDS011;10032;51.386;12.516;2022-11-12T08:52:24;9.80;;;7.30;;
19747;SDS011;10032;51.386;12.516;2022-11-12T08:54:49;9.90;;;7.57;;
19747;SDS011;10032;51.386;12.516;2022-11-12T08:57:15;9.73;;;7.50;;
19747;SDS011;10032;51.386;12.516;2022-11-12T08:59:40;11.63;;;7.27;;
19747;SDS011;10032;51.386;12.516;2022-11-12T09:02:10;15.57;;;9.93;;
19747;SDS011;10032;51.386;12.516;2022-11-12T09:04:36;11.90;;;7.83;;
19747;SDS011;10032;51.386;12.516;2022-11-12T09:07:02;9.30;;;6.37;;
19747;SDS011;10032;51.386;12.516;2022-11-12T09:09:27;11.03;;;7.33;;
19747;SDS011;10032;51.386;12.516;2022-11-12T09:11:52;11.67;;;8.07;;
19747;SDS011;10032;51.386;12.516;2022-11-12T09:14:18;8.67;;;6.70;;
19747;SDS011;10032;51.386;12.516;2022-11-12T09:16:43;9.20;;;6.07;;
19747;SDS011;10032;51.386;12.516;2022-11-12T09:19:09;10.07;;;6.73;;
19747;SDS011;10032;51.386;12.516;2022-11-12T09:21:34;10.77;;;6.73;;
19747;SDS011;10032;51.386;12.516;2022-11-12T09:23:59;9.47;;;6.53;;
19747;SDS011;10032;51.386;12.516;2022-11-12T09:26:25;9.30;;;6.30;;
19747;SDS011;10032;51.386;12.516;2022-11-12T09:28:50;7.73;;;6.60;;
19747;SDS011;10032;51.386;12.516;2022-11-12T09:31:17;8.60;;;6.70;;
19747;SDS011;10032;51.386;12.516;2022-11-12T09:33:43;11.13;;;6.20;;
19747;SDS011;10032;51.386;12.516;2022-11-12T09:36:09;9.93;;;6.23;;
19747;SDS011;10032;51.386;12.516;2022-11-12T09:38:34;9.33;;;5.30;;
19747;SDS011;10032;51.386;12.516;2022-11-12T09:41:05;10.13;;;6.70;;
19747;SDS011;10032;51.386;12.516;2022-11-12T09:43:36;8.37;;;6.03;;
19747;SDS011;10032;51.386;12.516;2022-11-12T09:51:49;10.60;;;6.83;;
19747;SDS011;10032;51.386;12.516;2022-11-12T09:54:24;10.07;;;5.93;;
19747;SDS011;10032;51.386;12.516;2022-11-12T09:56:52;8.63;;;6.20;;
19747;SDS011;10032;51.386;12.516;2022-11-12T09:59:18;10.97;;;6.83;;
19747;SDS011;10032;51.386;12.516;2022-11-12T10:23:49;12.00;;;6.37;;
19747;SDS011;10032;51.386;12.516;2022-11-12T10:26:19;9.17;;;6.10;;
19747;SDS011;10032;51.386;12.516;2022-11-12T10:28:47;11.77;;;7.23;;
19747;SDS011;10032;51.386;12.516;2022-11-12T10:31:17;8.83;;;5.77;;
19747;SDS011;10032;51.386;12.516;2022-11-12T10:33:44;11.77;;;6.87;;
19747;SDS011;10032;51.386;12.516;2022-11-12T10:38:48;7.77;;;5.73;;
19747;SDS011;10032;51.386;12.516;2022-11-12T10:41:27;6.47;;;5.43;;
19747;SDS011;10032;51.386;12.516;2022-11-12T10:43:59;8.07;;;5.93;;
19747;SDS011;10032;51.386;12.516;2022-11-12T10:49:03;6.63;;;5.00;;
19747;SDS011;10032;51.386;12.516;2022-11-12T10:51:35;7.17;;;5.33;;
19747;SDS011;10032;51.386;12.516;2022-11-12T10:56:45;6.80;;;5.60;;
19747;SDS011;10032;51.386;12.516;2022-11-12T10:59:16;10.07;;;5.87;;
19747;SDS011;10032;51.386;12.516;2022-11-12T11:01:43;8.23;;;5.50;;
19747;SDS011;10032;51.386;12.516;2022-11-12T11:09:59;7.90;;;5.90;;
19747;SDS011;10032;51.386;12.516;2022-11-12T11:17:52;8.57;;;5.67;;
19747;SDS011;10032;51.386;12.516;2022-11-12T11:20:27;6.17;;;5.40;;
19747;SDS011;10032;51.386;12.516;2022-11-12T11:23:13;7.53;;;5.40;;
19747;SDS011;10032;51.386;12.516;2022-11-12T11:25:44;7.10;;;5.73;;
19747;SDS011;10032;51.386;12.516;2022-11-12T11:38:48;8.07;;;5.37;;
19747;SDS011;10032;51.386;12.516;2022-11-12T12:03:21;7.67;;;4.70;;
19747;SDS011;10032;51.386;12.516;2022-11-12T12:09:02;5.93;;;4.60;;
19747;SDS011;10032;51.386;12.516;2022-11-12T12:20:15;5.00;;;4.50;;
19747;SDS011;10032;51.386;12.516;2022-11-12T12:22:58;5.60;;;4.27;;
19747;SDS011;10032;51.386;12.516;2022-11-12T12:25:35;6.13;;;4.60;;
19747;SDS011;10032;51.386;12.516;2022-11-12T12:28:26;7.13;;;4.57;;
19747;SDS011;10032;51.386;12.516;2022-11-12T12:31:00;5.87;;;4.23;;
19747;SDS011;10032;51.386;12.516;2022-11-12T12:33:36;6.63;;;4.50;;
19747;SDS011;10032;51.386;12.516;2022-11-12T12:44:20;8.10;;;4.10;;
19747;SDS011;10032;51.386;12.516;2022-11-12T12:47:06;5.27;;;4.30;;
19747;SDS011;10032;51.386;12.516;2022-11-12T12:49:37;7.93;;;5.07;;
19747;SDS011;10032;51.386;12.516;2022-11-12T12:52:04;8.37;;;4.60;;
19747;SDS011;10032;51.386;12.516;2022-11-12T12:57:04;6.77;;;4.00;;
19747;SDS011;10032;51.386;12.516;2022-11-12T13:00:23;5.93;;;4.60;;
19747;SDS011;10032;51.386;12.516;2022-11-12T13:02:49;6.13;;;4.13;;
19747;SDS011;10032;51.386;12.516;2022-11-12T13:05:28;5.40;;;4.27;;
19747;SDS011;10032;51.386;12.516;2022-11-12T13:08:39;6.83;;;4.87;;
19747;SDS011;10032;51.386;12.516;2022-11-12T13:10:50;4.90;;;3.80;;
19747;SDS011;10032;51.386;12.516;2022-11-12T13:15:42;5.90;;;3.60;;
19747;SDS011;10032;51.386;12.516;2022-11-12T13:21:16;5.80;;;3.40;;
19747;SDS011;10032;51.386;12.516;2022-11-12T13:23:47;5.87;;;3.80;;
19747;SDS011;10032;51.386;12.516;2022-11-12T13:26:36;6.10;;;3.93;;
19747;SDS011;10032;51.386;12.516;2022-11-12T13:45:47;4.00;;;3.30;;
19747;SDS011;10032;51.386;12.516;2022-11-12T13:48:28;5.53;;;3.43;;
19747;SDS011;10032;51.386;12.516;2022-11-12T13:51:02;5.53;;;3.63;;
19747;SDS011;10032;51.386;12.516;2022-11-12T13:53:31;5.30;;;4.10;;
19747;SDS011;10032;51.386;12.516;2022-11-12T13:55:56;5.93;;;4.73;;
19747;SDS011;10032;51.386;12.516;2022-11-12T13:58:26;5.30;;;3.80;;
19747;SDS011;10032;51.386;12.516;2022-11-12T14:00:57;7.73;;;4.27;;
19747;SDS011;10032;51.386;12.516;2022-11-12T14:03:30;5.67;;;4.63;;
19747;SDS011;10032;51.386;12.516;2022-11-12T14:06:04;4.73;;;4.10;;
19747;SDS011;10032;51.386;12.516;2022-11-12T14:24:39;9.60;;;6.27;;
19747;SDS011;10032;51.386;12.516;2022-11-12T14:27:19;6.70;;;5.00;;
19747;SDS011;10032;51.386;12.516;2022-11-12T14:30:03;6.63;;;5.07;;
19747;SDS011;10032;51.386;12.516;2022-11-12T14:32:41;7.20;;;5.23;;
19747;SDS011;10032;51.386;12.516;2022-11-12T14:38:10;7.20;;;5.00;;
19747;SDS011;10032;51.386;12.516;2022-11-12T14:40:41;6.40;;;5.30;;
19747;SDS011;10032;51.386;12.516;2022-11-12T14:43:20;10.00;;;5.13;;
19747;SDS011;10032;51.386;12.516;2022-11-12T14:45:52;5.93;;;4.83;;
19747;SDS011;10032;51.386;12.516;2022-11-12T14:48:19;7.83;;;5.30;;
19747;SDS011;10032;51.386;12.516;2022-11-12T14:50:46;7.73;;;5.60;;
19747;SDS011;10032;51.386;12.516;2022-11-12T14:53:20;8.37;;;5.17;;
19747;SDS011;10032;51.386;12.516;2022-11-12T14:55:50;8.10;;;5.07;;
19747;SDS011;10032;51.386;12.516;2022-11-12T14:58:17;7.87;;;5.43;;
19747;SDS011;10032;51.386;12.516;2022-11-12T15:00:45;6.43;;;5.27;;
19747;SDS011;10032;51.386;12.516;2022-11-12T15:03:14;5.77;;;4.90;;
19747;SDS011;10032;51.386;12.516;2022-11-12T15:08:54;6.97;;;5.27;;
19747;SDS011;10032;51.386;12.516;2022-11-12T15:11:22;7.10;;;4.80;;
19747;SDS011;10032;51.386;12.516;2022-11-12T15:13:50;10.03;;;5.40;;
19747;SDS011;10032;51.386;12.516;2022-11-12T15:16:20;8.93;;;5.83;;
19747;SDS011;10032;51.386;12.516;2022-11-12T15:19:02;6.70;;;4.93;;
19747;SDS011;10032;51.386;12.516;2022-11-12T15:21:30;10.87;;;4.83;;
19747;SDS011;10032;51.386;12.516;2022-11-12T15:26:41;6.70;;;4.73;;
19747;SDS011;10032;51.386;12.516;2022-11-12T15:31:42;9.00;;;5.50;;
19747;SDS011;10032;51.386;12.516;2022-11-12T15:36:49;7.13;;;5.60;;
19747;SDS011;10032;51.386;12.516;2022-11-12T15:39:15;7.47;;;5.47;;
19747;SDS011;10032;51.386;12.516;2022-11-12T15:41:41;7.80;;;6.10;;
19747;SDS011;10032;51.386;12.516;2022-11-12T15:44:07;8.80;;;7.10;;
19747;SDS011;10032;51.386;12.516;2022-11-12T15:46:35;7.77;;;5.27;;
19747;SDS011;10032;51.386;12.516;2022-11-12T15:49:01;10.10;;;6.33;;
19747;SDS011;10032;51.386;12.516;2022-11-12T15:51:26;7.47;;;5.47;;
19747;SDS011;10032;51.386;12.516;2022-11-12T15:53:52;10.00;;;7.17;;
19747;SDS011;10032;51.386;12.516;2022-11-12T15:56:17;10.70;;;7.83;;
19747;SDS011;10032;51.386;12.516;2022-11-12T15:58:46;8.37;;;6.80;;
19747;SDS011;10032;51.386;12.516;2022-11-12T16:01:12;8.43;;;6.43;;
19747;SDS011;10032;51.386;12.516;2022-11-12T16:03:37;9.10;;;6.57;;
19747;SDS011;10032;51.386;12.516;2022-11-12T16:06:03;9.67;;;6.37;;
19747;SDS011;10032;51.386;12.516;2022-11-12T16:08:29;9.30;;;6.37;;
19747;SDS011;10032;51.386;12.516;2022-11-12T16:10:54;9.03;;;5.20;;
19747;SDS011;10032;51.386;12.516;2022-11-12T16:15:54;8.30;;;6.83;;
19747;SDS011;10032;51.386;12.516;2022-11-12T16:18:19;8.97;;;6.07;;
19747;SDS011;10032;51.386;12.516;2022-11-12T16:20:45;7.60;;;6.03;;
19747;SDS011;10032;51.386;12.516;2022-11-12T16:23:11;8.33;;;6.23;;
19747;SDS011;10032;51.386;12.516;2022-11-12T16:25:37;13.83;;;6.70;;
19747;SDS011;10032;51.386;12.516;2022-11-12T16:28:08;12.43;;;8.97;;
19747;SDS011;10032;51.386;12.516;2022-11-12T16:30:37;8.13;;;6.40;;
19747;SDS011;10032;51.386;12.516;2022-11-12T16:33:03;8.43;;;6.20;;
19747;SDS011;10032;51.386;12.516;2022-11-12T16:35:28;10.67;;;7.87;;
19747;SDS011;10032;51.386;12.516;2022-11-12T16:37:58;13.53;;;7.87;;
19747;SDS011;10032;51.386;12.516;2022-11-12T16:40:25;8.97;;;6.70;;
19747;SDS011;10032;51.386;12.516;2022-11-12T16:42:52;9.23;;;6.63;;
19747;SDS011;10032;51.386;12.516;2022-11-12T16:45:18;9.00;;;6.30;;
19747;SDS011;10032;51.386;12.516;2022-11-12T16:47:46;8.30;;;5.83;;
19747;SDS011;10032;51.386;12.516;2022-11-12T16:50:14;8.47;;;5.87;;
19747;SDS011;10032;51.386;12.516;2022-11-12T16:52:42;8.97;;;5.83;;
19747;SDS011;10032;51.386;12.516;2022-11-12T16:55:08;12.67;;;7.63;;
19747;SDS011;10032;51.386;12.516;2022-11-12T16:57:34;7.77;;;6.23;;
19747;SDS011;10032;51.386;12.516;2022-11-12T16:59:59;9.77;;;6.87;;
19747;SDS011;10032;51.386;12.516;2022-11-12T17:02:25;7.90;;;6.40;;
19747;SDS011;10032;51.386;12.516;2022-11-12T17:04:50;7.90;;;6.63;;
19747;SDS011;10032;51.386;12.516;2022-11-12T17:07:16;8.47;;;6.30;;
19747;SDS011;10032;51.386;12.516;2022-11-12T17:09:41;10.50;;;6.97;;
19747;SDS011;10032;51.386;12.516;2022-11-12T17:12:07;11.47;;;7.00;;
19747;SDS011;10032;51.386;12.516;2022-11-12T17:14:33;8.93;;;6.40;;
19747;SDS011;10032;51.386;12.516;2022-11-12T17:16:58;11.13;;;6.83;;